TimeEST,TemperatureF,Dew PointF,Humidity,Sea Level PressureIn,VisibilityMPH,Wind Direction,Wind SpeedMPH,Gust SpeedMPH,PrecipitationIn,Events,Conditions,WindDirDegrees,DateUTC
12:56 AM,-7.1,-15.0,68,30.48,10.0,West,6.9,-,N/A,,Clear,280,2014-01-28 05:56:00
1:56 AM,-9.9,-17.0,71,30.47,10.0,WSW,4.6,-,N/A,,Clear,250,2014-01-28 06:56:00
2:56 AM,-9.9,-17.0,71,30.48,10.0,WSW,4.6,-,N/A,,Clear,240,2014-01-28 07:56:00
3:56 AM,-9.9,-17.0,71,30.48,10.0,West,4.6,-,N/A,,Clear,270,2014-01-28 08:56:00
4:56 AM,-9.9,-17.0,71,30.49,10.0,SW,6.9,-,N/A,,Clear,230,2014-01-28 09:56:00
5:56 AM,-9.9,-16.1,74,30.50,10.0,SSW,6.9,-,N/A,,Clear,210,2014-01-28 10:56:00
6:56 AM,-9.9,-16.1,74,30.50,10.0,SW,6.9,-,N/A,,Partly Cloudy,220,2014-01-28 11:56:00
7:56 AM,-11.0,-17.0,75,30.51,10.0,WSW,5.8,-,N/A,,Scattered Clouds,240,2014-01-28 12:56:00
8:56 AM,-9.0,-15.0,75,30.52,10.0,SW,5.8,-,N/A,,Mostly Cloudy,230,2014-01-28 13:56:00
9:56 AM,-6.0,-14.1,68,30.52,10.0,West,5.8,-,N/A,,Mostly Cloudy,270,2014-01-28 14:56:00
10:56 AM,-2.9,-13.0,62,30.52,10.0,WSW,4.6,-,N/A,,Mostly Cloudy,240,2014-01-28 15:56:00
11:56 AM,-0.9,-13.0,57,30.50,10.0,WSW,4.6,-,N/A,,Mostly Cloudy,250,2014-01-28 16:56:00
12:56 PM,1.9,-11.9,52,30.46,10.0,WSW,3.5,-,N/A,,Mostly Cloudy,240,2014-01-28 17:56:00
1:56 PM,3.9,-9.9,53,30.43,10.0,West,4.6,-,N/A,,Mostly Cloudy,280,2014-01-28 18:56:00
2:56 PM,3.9,-11.0,50,30.41,10.0,West,5.8,-,N/A,,Mostly Cloudy,270,2014-01-28 19:56:00
3:56 PM,5.0,-9.0,52,30.42,10.0,WSW,4.6,-,N/A,,Mostly Cloudy,250,2014-01-28 20:56:00
4:56 PM,5.0,-9.0,52,30.41,10.0,West,5.8,-,N/A,,Scattered Clouds,270,2014-01-28 21:56:00
5:56 PM,3.0,-9.9,55,30.40,10.0,SSW,4.6,-,N/A,,Scattered Clouds,210,2014-01-28 22:56:00
6:56 PM,3.0,-9.9,55,30.40,10.0,SSW,4.6,-,N/A,,Clear,200,2014-01-28 23:56:00
7:56 PM,1.9,-9.9,58,30.38,10.0,SSW,5.8,-,N/A,,Clear,200,2014-01-29 00:56:00
8:56 PM,1.9,-9.9,58,30.37,10.0,SSW,5.8,-,N/A,,Clear,200,2014-01-29 01:56:00
9:56 PM,1.0,-9.9,60,30.38,10.0,SSW,5.8,-,N/A,,Clear,210,2014-01-29 02:56:00
10:56 PM,1.0,-9.9,60,30.38,10.0,SSW,5.8,-,N/A,,Clear,210,2014-01-29 03:56:00
11:56 PM,-2.0,-11.0,66,30.37,10.0,SW,8.1,-,N/A,,Clear,230,2014-01-29 04:56:00